createdAt,value
2023-04-16T00:01:46.681Z,3.03
2023-04-16T00:06:49.778Z,2.93
2023-04-16T00:11:52.899Z,3.13
2023-04-16T00:16:57.383Z,3.23
2023-04-16T00:22:00.628Z,3.33
2023-04-16T00:27:03.827Z,3.50
2023-04-16T00:32:08.828Z,3.20
2023-04-16T00:37:12.010Z,2.90
2023-04-16T00:42:15.290Z,3.57
2023-04-16T00:47:21.550Z,3.00
2023-04-16T00:52:24.945Z,3.07
2023-04-16T00:57:28.111Z,3.50
2023-04-16T01:02:32.808Z,3.10
2023-04-16T01:07:35.999Z,3.10
2023-04-16T01:12:39.241Z,3.00
2023-04-16T01:17:45.556Z,3.00
2023-04-16T01:22:50.454Z,2.60
2023-04-16T01:27:54.910Z,2.93
2023-04-16T01:32:58.026Z,2.53
2023-04-16T01:38:02.538Z,2.83
2023-04-16T01:43:06.124Z,2.77
2023-04-16T01:48:10.298Z,2.70
2023-04-16T01:53:14.770Z,2.77
2023-04-16T01:58:18.041Z,2.80
2023-04-16T02:03:21.724Z,2.80
2023-04-16T02:08:26.392Z,2.60
2023-04-16T02:13:29.478Z,2.80
2023-04-16T02:18:32.605Z,3.00
2023-04-16T02:23:37.496Z,2.90
2023-04-16T02:28:40.914Z,3.17
2023-04-16T02:33:44.123Z,3.13
2023-04-16T02:38:48.711Z,3.20
2023-04-16T02:43:51.797Z,3.00
2023-04-16T02:48:54.900Z,3.00
2023-04-16T02:53:59.359Z,2.97
2023-04-16T02:59:02.481Z,2.67
2023-04-16T03:04:05.891Z,2.60
2023-04-16T03:09:10.974Z,2.63
2023-04-16T03:14:14.294Z,3.03
2023-04-16T03:19:17.389Z,2.87
2023-04-16T03:24:21.851Z,3.13
2023-04-16T03:29:25.083Z,3.30
2023-04-16T03:34:28.155Z,3.43
2023-04-16T03:39:33.939Z,3.47
2023-04-16T03:44:37.136Z,3.90
2023-04-16T03:49:40.253Z,3.97
2023-04-16T03:54:44.722Z,3.97
2023-04-16T03:59:47.785Z,4.00
2023-04-16T04:04:50.916Z,4.13
2023-04-16T04:09:55.603Z,4.10
2023-04-16T04:14:58.868Z,4.20
2023-04-16T04:20:02.228Z,3.67
2023-04-16T04:25:08.597Z,4.07
2023-04-16T04:30:12.741Z,4.07
2023-04-16T04:35:15.837Z,4.53
2023-04-16T04:40:20.668Z,4.17
2023-04-16T04:45:25.549Z,4.70
2023-04-16T04:50:28.803Z,4.77
2023-04-16T04:55:33.300Z,4.73
2023-04-16T05:00:37.409Z,4.50
2023-04-16T05:05:40.756Z,4.87
2023-04-16T05:10:45.356Z,4.93
2023-04-16T05:15:48.474Z,4.67
2023-04-16T05:20:51.642Z,4.60
2023-04-16T05:25:56.086Z,5.07
2023-04-16T05:30:59.236Z,5.33
2023-04-16T05:36:02.382Z,5.60
2023-04-16T05:41:07.148Z,5.80
2023-04-16T05:46:10.295Z,5.90
2023-04-16T05:51:13.459Z,6.00
2023-04-16T05:56:20.935Z,5.60
2023-04-16T06:01:24.164Z,5.83
2023-04-16T06:06:30.790Z,5.60
2023-04-16T06:11:36.401Z,4.97
2023-04-16T06:16:39.759Z,4.93
2023-04-16T06:21:42.889Z,4.70
2023-04-16T06:26:47.372Z,4.80
2023-04-16T06:31:50.721Z,4.37
2023-04-16T06:36:53.912Z,4.40
2023-04-16T06:41:58.517Z,3.90
2023-04-16T06:47:01.623Z,4.37
2023-04-16T06:52:05.907Z,4.10
2023-04-16T06:57:11.273Z,3.53
2023-04-16T07:02:14.471Z,3.57
2023-04-16T07:07:17.671Z,3.97
2023-04-16T07:12:23.051Z,4.07
2023-04-16T07:17:26.502Z,2.77
2023-04-16T07:22:29.625Z,3.43
2023-04-16T07:27:34.191Z,3.27
2023-04-16T07:32:37.589Z,3.03
2023-04-16T07:37:41.435Z,3.07
2023-04-16T07:42:46.099Z,2.80
2023-04-16T07:47:51.609Z,2.60
2023-04-16T07:52:54.945Z,2.60
2023-04-16T07:57:59.444Z,2.60
2023-04-16T08:03:02.894Z,2.07
2023-04-16T08:08:06.465Z,2.10
2023-04-16T08:13:11.090Z,1.87
2023-04-16T08:18:15.710Z,2.10
2023-04-16T08:23:19.000Z,2.27
2023-04-16T08:28:23.459Z,1.50
2023-04-16T08:33:26.593Z,2.07
2023-04-16T08:38:30.410Z,2.03
2023-04-16T08:43:39.726Z,2.20
2023-04-16T08:48:44.118Z,1.60
2023-04-16T08:53:53.331Z,1.57
2023-04-16T08:58:58.535Z,1.00
2023-04-16T09:04:02.821Z,0.70
2023-04-16T09:09:07.060Z,0.90
2023-04-16T09:14:13.443Z,0.67
2023-04-16T09:19:16.862Z,0.70
2023-04-16T09:24:20.372Z,0.80
2023-04-16T09:29:37.502Z,1.27
2023-04-16T09:34:56.453Z,0.80
2023-04-16T09:40:00.980Z,0.90
2023-04-16T09:45:06.395Z,1.67
2023-04-16T09:50:12.694Z,1.10
2023-04-16T09:55:16.661Z,1.03
2023-04-16T10:00:21.202Z,0.80
2023-04-16T10:05:27.308Z,0.90
2023-04-16T10:10:30.681Z,0.90
2023-04-16T10:15:35.767Z,1.03
2023-04-16T10:20:39.168Z,0.90
2023-04-16T10:25:43.410Z,0.83
2023-04-16T10:30:53.695Z,1.00
2023-04-16T10:36:10.471Z,1.70
2023-04-16T10:41:13.955Z,1.90
2023-04-16T10:46:26.863Z,0.93
2023-04-16T10:51:32.668Z,1.43
2023-04-16T10:56:37.212Z,1.00
2023-04-16T11:01:44.399Z,0.90
2023-04-16T11:07:02.943Z,0.80
2023-04-16T11:12:13.056Z,1.00
2023-04-16T11:17:18.328Z,1.10
2023-04-16T11:22:21.618Z,0.67
2023-04-16T11:27:24.988Z,0.77
2023-04-16T11:32:32.029Z,0.73
2023-04-16T11:37:35.842Z,0.70
2023-04-16T11:42:40.771Z,0.70
2023-04-16T11:47:47.039Z,0.80
2023-04-16T11:52:50.574Z,0.80
2023-04-16T11:57:53.680Z,0.60
2023-04-16T12:02:58.973Z,0.90
2023-04-16T12:08:03.579Z,0.80
2023-04-16T12:13:17.819Z,1.60
2023-04-16T12:18:26.061Z,0.93
2023-04-16T12:23:31.455Z,0.87
2023-04-16T12:28:36.714Z,1.40
2023-04-16T12:33:42.733Z,0.70
2023-04-16T12:38:45.847Z,9.53
2023-04-16T12:43:48.954Z,1.50
2023-04-16T12:48:53.419Z,1.20
2023-04-16T12:53:56.731Z,0.80
2023-04-16T12:58:59.943Z,0.70
2023-04-16T13:04:04.739Z,0.60
2023-04-16T13:09:08.013Z,0.80
2023-04-16T13:14:11.318Z,0.77
2023-04-16T13:19:19.141Z,0.60
2023-04-16T13:24:23.227Z,0.70
2023-04-16T13:29:26.341Z,0.70
2023-04-16T13:34:31.791Z,0.80
2023-04-16T13:39:35.306Z,0.73
2023-04-16T13:44:38.418Z,1.20
2023-04-16T13:49:42.854Z,0.83
2023-04-16T13:54:45.986Z,0.70
2023-04-16T13:59:49.166Z,0.80
2023-04-16T14:04:53.966Z,1.07
2023-04-16T14:09:57.053Z,0.60
2023-04-16T14:15:00.179Z,0.63
2023-04-16T14:20:05.820Z,0.60
2023-04-16T14:25:09.374Z,0.70
2023-04-16T14:30:12.796Z,0.50
2023-04-16T14:35:17.335Z,0.70
2023-04-16T14:40:22.302Z,0.70
2023-04-16T14:45:29.060Z,0.90
2023-04-16T14:50:37.771Z,1.70
2023-04-16T14:55:41.108Z,0.63
2023-04-16T15:00:44.311Z,0.70
2023-04-16T15:05:55.967Z,0.60
2023-04-16T15:10:59.217Z,1.30
2023-04-16T15:16:02.859Z,2.03
2023-04-16T15:21:07.623Z,1.60
2023-04-16T15:26:10.732Z,1.20
2023-04-16T15:31:13.846Z,1.00
2023-04-16T15:36:18.393Z,1.00
2023-04-16T15:41:21.849Z,1.00
2023-04-16T15:46:25.209Z,0.90
2023-04-16T15:51:31.746Z,1.00
2023-04-16T15:56:34.923Z,1.50
2023-04-16T16:01:38.167Z,0.90
2023-04-16T16:06:42.690Z,0.90
2023-04-16T16:11:45.839Z,1.30
2023-04-16T16:16:49.213Z,1.30
2023-04-16T16:21:53.755Z,1.87
2023-04-16T16:26:57.054Z,1.20
2023-04-16T16:32:00.374Z,1.00
2023-04-16T16:37:05.153Z,1.37
2023-04-16T16:42:09.213Z,1.40
2023-04-16T16:47:12.335Z,2.20
2023-04-16T16:52:16.817Z,3.10
2023-04-16T16:57:20.456Z,1.50
2023-04-16T17:02:24.021Z,2.40
2023-04-16T17:07:28.774Z,4.30
2023-04-16T17:12:32.325Z,5.50
2023-04-16T17:17:35.977Z,4.00
2023-04-16T17:22:41.016Z,1.97
2023-04-16T17:27:44.136Z,1.80
2023-04-16T17:32:47.390Z,1.80
2023-04-16T17:37:52.290Z,1.23
2023-04-16T17:42:55.491Z,1.10
2023-04-16T17:47:58.608Z,1.07
2023-04-16T17:53:03.829Z,1.43
2023-04-16T17:58:07.016Z,1.20
2023-04-16T18:03:11.605Z,1.20
2023-04-16T18:08:16.287Z,1.00
2023-04-16T18:13:19.476Z,1.10
2023-04-16T18:18:22.534Z,1.00
2023-04-16T18:23:27.316Z,1.00
2023-04-16T18:28:30.401Z,1.30
2023-04-16T18:33:53.937Z,3.83
2023-04-16T18:39:15.682Z,1.17
2023-04-16T18:44:19.909Z,1.30
2023-04-16T18:49:26.419Z,3.37
2023-04-16T18:54:31.005Z,3.63
2023-04-16T18:59:34.632Z,4.53
2023-04-16T19:04:38.151Z,3.90
2023-04-16T19:09:42.875Z,3.57
2023-04-16T19:14:46.010Z,3.40
2023-04-16T19:19:49.351Z,2.53
2023-04-16T19:24:54.714Z,2.33
2023-04-16T19:29:57.967Z,2.40
2023-04-16T19:35:01.297Z,2.47
2023-04-16T19:40:06.967Z,3.03
2023-04-16T19:45:10.597Z,2.50
2023-04-16T19:50:13.976Z,2.50
2023-04-16T19:55:19.060Z,2.30
2023-04-16T20:00:22.757Z,1.93
2023-04-16T20:05:26.556Z,1.70
2023-04-16T20:10:34.865Z,2.30
2023-04-16T20:15:38.694Z,2.00
2023-04-16T20:20:42.110Z,1.77
2023-04-16T20:25:47.768Z,1.60
2023-04-16T20:30:51.209Z,1.77
2023-04-16T20:35:57.307Z,5.00
2023-04-16T20:41:10.008Z,5.37
2023-04-16T20:46:13.827Z,3.50
2023-04-16T20:51:17.410Z,3.67
2023-04-16T20:56:22.128Z,3.70
2023-04-16T21:01:25.356Z,4.87
2023-04-16T21:06:32.846Z,4.47
2023-04-16T21:11:37.805Z,3.90
2023-04-16T21:16:41.411Z,3.30
2023-04-16T21:21:44.844Z,3.80
2023-04-16T21:26:49.569Z,3.03
2023-04-16T21:31:52.967Z,3.23
2023-04-16T21:36:57.050Z,3.30
2023-04-16T21:42:02.584Z,3.40
2023-04-16T21:47:06.105Z,3.03
2023-04-16T21:52:14.167Z,3.53
2023-04-16T21:57:18.841Z,2.77
2023-04-16T22:02:22.998Z,3.17
2023-04-16T22:07:27.197Z,2.70
2023-04-16T22:12:32.417Z,2.73
2023-04-16T22:17:35.936Z,2.53
2023-04-16T22:22:39.424Z,2.60
2023-04-16T22:27:44.106Z,3.03
2023-04-16T22:32:47.402Z,3.20
2023-04-16T22:37:50.942Z,2.87
2023-04-16T22:42:55.555Z,4.07
2023-04-16T22:47:59.005Z,3.40
2023-04-16T22:53:02.289Z,3.17
2023-04-16T22:58:06.954Z,2.87
2023-04-16T23:03:10.332Z,3.10
2023-04-16T23:08:13.767Z,3.57
2023-04-16T23:13:18.478Z,3.00
2023-04-16T23:18:21.936Z,2.60
2023-04-16T23:23:25.323Z,3.00
2023-04-16T23:28:30.322Z,2.10
2023-04-16T23:33:33.735Z,2.33
2023-04-16T23:38:37.241Z,2.30
2023-04-16T23:43:44.027Z,3.60
2023-04-16T23:48:47.237Z,2.80
2023-04-16T23:53:50.634Z,2.70
2023-04-16T23:58:55.572Z,2.57
